sensor_id;sensor_type;location;lat;lon;timestamp;pressure;altitude;pressure_sealevel;temperature;humidity
11172;BME280;5642;50.830;12.082;2022-09-03T00:01:24;99439.59;;;15.09;30.11
11172;BME280;5642;50.830;12.082;2022-09-03T00:04:01;99448.44;;;15.08;30.07
11172;BME280;5642;50.830;12.082;2022-09-03T00:06:42;99434.56;;;15.05;30.29
11172;BME280;5642;50.830;12.082;2022-09-03T00:09:40;99442.63;;;15.02;30.14
11172;BME280;5642;50.830;12.082;2022-09-03T00:12:17;99434.16;;;14.95;30.14
11172;BME280;5642;50.830;12.082;2022-09-03T00:14:54;99430.50;;;14.98;30.33
11172;BME280;5642;50.830;12.082;2022-09-03T00:17:43;99431.50;;;14.95;30.20
11172;BME280;5642;50.830;12.082;2022-09-03T00:22:54;99442.06;;;14.95;30.38
11172;BME280;5642;50.830;12.082;2022-09-03T00:25:32;99445.56;;;14.96;30.26
11172;BME280;5642;50.830;12.082;2022-09-03T00:28:01;99444.69;;;14.95;30.34
11172;BME280;5642;50.830;12.082;2022-09-03T00:30:31;99418.13;;;14.81;30.35
11172;BME280;5642;50.830;12.082;2022-09-03T00:33:20;99438.72;;;14.92;30.51
11172;BME280;5642;50.830;12.082;2022-09-03T00:36:13;99436.47;;;14.84;30.60
11172;BME280;5642;50.830;12.082;2022-09-03T00:38:39;99451.72;;;14.77;30.48
11172;BME280;5642;50.830;12.082;2022-09-03T00:41:28;99444.75;;;14.76;30.60
11172;BME280;5642;50.830;12.082;2022-09-03T00:44:11;99447.69;;;14.70;30.72
11172;BME280;5642;50.830;12.082;2022-09-03T00:46:45;99449.66;;;14.65;30.61
11172;BME280;5642;50.830;12.082;2022-09-03T00:55:09;99451.22;;;14.50;30.79
11172;BME280;5642;50.830;12.082;2022-09-03T01:00:16;99436.78;;;14.40;30.83
11172;BME280;5642;50.830;12.082;2022-09-03T01:13:29;99458.84;;;14.38;31.03
11172;BME280;5642;50.830;12.082;2022-09-03T01:16:09;99454.53;;;14.35;31.21
11172;BME280;5642;50.830;12.082;2022-09-03T01:30:17;99462.16;;;14.23;31.40
11172;BME280;5642;50.830;12.082;2022-09-03T01:33:01;99456.94;;;14.21;31.43
11172;BME280;5642;50.830;12.082;2022-09-03T01:46:25;99429.03;;;13.98;31.53
11172;BME280;5642;50.830;12.082;2022-09-03T01:49:23;99450.63;;;14.06;31.45
11172;BME280;5642;50.830;12.082;2022-09-03T01:52:10;99464.50;;;14.10;31.67
11172;BME280;5642;50.830;12.082;2022-09-03T01:57:53;99447.59;;;13.95;31.66
11172;BME280;5642;50.830;12.082;2022-09-03T02:00:24;99397.94;;;13.67;31.58
11172;BME280;5642;50.830;12.082;2022-09-03T02:02:53;99465.63;;;14.04;31.46
11172;BME280;5642;50.830;12.082;2022-09-03T02:05:22;99441.63;;;13.92;31.83
11172;BME280;5642;50.830;12.082;2022-09-03T02:08:00;99444.16;;;13.93;31.87
11172;BME280;5642;50.830;12.082;2022-09-03T02:13:04;99467.19;;;14.08;31.73
11172;BME280;5642;50.830;12.082;2022-09-03T02:15:32;99443.25;;;13.94;31.64
11172;BME280;5642;50.830;12.082;2022-09-03T02:18:03;99463.06;;;14.03;31.81
11172;BME280;5642;50.830;12.082;2022-09-03T02:20:31;99462.84;;;14.07;31.88
11172;BME280;5642;50.830;12.082;2022-09-03T02:22:57;99467.34;;;14.05;31.89
11172;BME280;5642;50.830;12.082;2022-09-03T02:25:29;99477.78;;;14.07;32.09
11172;BME280;5642;50.830;12.082;2022-09-03T02:27:57;99415.47;;;13.68;31.98
11172;BME280;5642;50.830;12.082;2022-09-03T02:30:23;99428.22;;;13.78;31.96
11172;BME280;5642;50.830;12.082;2022-09-03T02:32:49;99456.56;;;13.91;32.21
11172;BME280;5642;50.830;12.082;2022-09-03T02:35:17;99472.81;;;14.01;32.27
11172;BME280;5642;50.830;12.082;2022-09-03T02:37:42;99470.31;;;13.98;32.15
11172;BME280;5642;50.830;12.082;2022-09-03T02:40:09;99469.31;;;14.00;32.31
11172;BME280;5642;50.830;12.082;2022-09-03T02:42:36;99467.69;;;13.98;32.25
11172;BME280;5642;50.830;12.082;2022-09-03T02:45:18;99453.78;;;13.94;32.29
11172;BME280;5642;50.830;12.082;2022-09-03T02:47:49;99467.47;;;14.02;32.24
11172;BME280;5642;50.830;12.082;2022-09-03T02:50:17;99416.09;;;13.73;32.38
11172;BME280;5642;50.830;12.082;2022-09-03T02:52:44;99462.94;;;14.06;32.44
11172;BME280;5642;50.830;12.082;2022-09-03T02:55:10;99454.50;;;13.98;32.39
11172;BME280;5642;50.830;12.082;2022-09-03T02:57:36;99454.38;;;14.01;32.60
11172;BME280;5642;50.830;12.082;2022-09-03T03:00:03;99447.47;;;13.98;32.55
11172;BME280;5642;50.830;12.082;2022-09-03T03:02:30;99455.09;;;14.04;32.63
11172;BME280;5642;50.830;12.082;2022-09-03T03:04:56;99451.88;;;13.98;32.40
11172;BME280;5642;50.830;12.082;2022-09-03T03:07:21;99422.00;;;13.79;32.75
11172;BME280;5642;50.830;12.082;2022-09-03T03:09:48;99459.06;;;13.94;32.68
11172;BME280;5642;50.830;12.082;2022-09-03T03:12:14;99450.72;;;13.85;32.76
11172;BME280;5642;50.830;12.082;2022-09-03T03:14:42;99463.88;;;13.85;32.85
11172;BME280;5642;50.830;12.082;2022-09-03T03:17:08;99451.81;;;13.79;32.83
11172;BME280;5642;50.830;12.082;2022-09-03T03:19:34;99447.69;;;13.73;33.01
11172;BME280;5642;50.830;12.082;2022-09-03T03:22:00;99443.63;;;13.66;33.22
11172;BME280;5642;50.830;12.082;2022-09-03T03:24:26;99429.16;;;13.56;32.95
11172;BME280;5642;50.830;12.082;2022-09-03T03:26:56;99452.50;;;13.64;33.16
11172;BME280;5642;50.830;12.082;2022-09-03T03:29:25;99451.78;;;13.60;33.09
11172;BME280;5642;50.830;12.082;2022-09-03T03:31:52;99443.28;;;13.54;33.09
11172;BME280;5642;50.830;12.082;2022-09-03T03:34:18;99435.78;;;13.45;32.89
11172;BME280;5642;50.830;12.082;2022-09-03T03:36:45;99457.09;;;13.59;33.01
11172;BME280;5642;50.830;12.082;2022-09-03T03:39:12;99454.47;;;13.59;32.92
11172;BME280;5642;50.830;12.082;2022-09-03T03:41:38;99454.41;;;13.60;32.97
11172;BME280;5642;50.830;12.082;2022-09-03T03:44:05;99427.19;;;13.41;32.94
11172;BME280;5642;50.830;12.082;2022-09-03T03:46:37;99451.19;;;13.54;32.87
11172;BME280;5642;50.830;12.082;2022-09-03T03:49:04;99461.59;;;13.57;33.21
11172;BME280;5642;50.830;12.082;2022-09-03T03:51:34;99449.41;;;13.54;32.94
11172;BME280;5642;50.830;12.082;2022-09-03T03:54:01;99454.63;;;13.56;32.99
11172;BME280;5642;50.830;12.082;2022-09-03T03:56:27;99441.25;;;13.40;32.96
11172;BME280;5642;50.830;12.082;2022-09-03T03:58:53;99448.88;;;13.46;33.04
11172;BME280;5642;50.830;12.082;2022-09-03T04:01:23;99434.38;;;13.36;33.26
11172;BME280;5642;50.830;12.082;2022-09-03T04:03:50;99455.31;;;13.39;33.11
11172;BME280;5642;50.830;12.082;2022-09-03T04:06:18;99395.41;;;13.04;33.30
11172;BME280;5642;50.830;12.082;2022-09-03T04:08:46;99446.91;;;13.31;33.06
11172;BME280;5642;50.830;12.082;2022-09-03T04:11:15;99420.53;;;13.11;33.35
11172;BME280;5642;50.830;12.082;2022-09-03T04:13:43;99442.22;;;13.17;33.51
11172;BME280;5642;50.830;12.082;2022-09-03T04:16:12;99449.19;;;13.18;33.42
11172;BME280;5642;50.830;12.082;2022-09-03T04:18:39;99428.69;;;13.05;33.48
11172;BME280;5642;50.830;12.082;2022-09-03T04:21:29;99457.41;;;13.09;33.34
11172;BME280;5642;50.830;12.082;2022-09-03T04:23:56;99430.28;;;12.87;33.60
11172;BME280;5642;50.830;12.082;2022-09-03T04:26:28;99463.84;;;13.02;33.43
11172;BME280;5642;50.830;12.082;2022-09-03T04:29:05;99419.91;;;12.84;33.70
11172;BME280;5642;50.830;12.082;2022-09-03T04:31:33;99454.22;;;13.01;33.56
11172;BME280;5642;50.830;12.082;2022-09-03T04:33:59;99435.38;;;12.91;33.63
11172;BME280;5642;50.830;12.082;2022-09-03T04:36:29;99455.09;;;13.02;33.45
11172;BME280;5642;50.830;12.082;2022-09-03T04:38:58;99454.44;;;12.97;33.75
11172;BME280;5642;50.830;12.082;2022-09-03T04:41:28;99441.78;;;12.84;33.83
11172;BME280;5642;50.830;12.082;2022-09-03T04:43:57;99449.59;;;12.86;33.58
11172;BME280;5642;50.830;12.082;2022-09-03T04:46:25;99447.31;;;12.78;33.97
11172;BME280;5642;50.830;12.082;2022-09-03T04:48:56;99438.97;;;12.67;34.04
11172;BME280;5642;50.830;12.082;2022-09-03T04:51:25;99458.59;;;12.80;34.13
11172;BME280;5642;50.830;12.082;2022-09-03T04:54:00;99462.94;;;12.81;33.92
11172;BME280;5642;50.830;12.082;2022-09-03T04:56:32;99461.09;;;12.83;33.95
11172;BME280;5642;50.830;12.082;2022-09-03T04:59:02;99442.88;;;12.79;34.03
11172;BME280;5642;50.830;12.082;2022-09-03T05:01:32;99464.28;;;12.91;34.18
11172;BME280;5642;50.830;12.082;2022-09-03T05:03:59;99402.06;;;12.48;34.10
11172;BME280;5642;50.830;12.082;2022-09-03T05:06:27;99474.81;;;12.91;33.92
11172;BME280;5642;50.830;12.082;2022-09-03T05:08:54;99424.34;;;12.60;33.98
11172;BME280;5642;50.830;12.082;2022-09-03T05:11:21;99474.56;;;12.98;34.43
11172;BME280;5642;50.830;12.082;2022-09-03T05:13:48;99451.91;;;12.93;34.15
11172;BME280;5642;50.830;12.082;2022-09-03T05:16:15;99472.41;;;13.07;34.23
11172;BME280;5642;50.830;12.082;2022-09-03T05:18:42;99468.72;;;13.11;34.24
11172;BME280;5642;50.830;12.082;2022-09-03T05:21:11;99477.16;;;13.21;34.34
11172;BME280;5642;50.830;12.082;2022-09-03T05:23:40;99471.63;;;13.27;34.41
11172;BME280;5642;50.830;12.082;2022-09-03T05:26:09;99455.91;;;13.25;34.41
11172;BME280;5642;50.830;12.082;2022-09-03T05:28:38;99464.03;;;13.41;34.59
11172;BME280;5642;50.830;12.082;2022-09-03T05:31:10;99443.81;;;13.42;34.72
11172;BME280;5642;50.830;12.082;2022-09-03T05:33:38;99419.72;;;13.51;35.70
11172;BME280;5642;50.830;12.082;2022-09-03T05:36:06;99471.78;;;14.24;36.47
11172;BME280;5642;50.830;12.082;2022-09-03T05:38:33;99444.03;;;14.73;37.14
11172;BME280;5642;50.830;12.082;2022-09-03T05:41:00;99466.91;;;15.61;37.73
11172;BME280;5642;50.830;12.082;2022-09-03T05:43:27;99386.50;;;16.00;37.47
11172;BME280;5642;50.830;12.082;2022-09-03T05:46:03;99448.56;;;17.34;37.50
11172;BME280;5642;50.830;12.082;2022-09-03T05:48:31;99470.69;;;18.35;37.25
11172;BME280;5642;50.830;12.082;2022-09-03T05:51:06;99397.72;;;18.98;36.75
11172;BME280;5642;50.830;12.082;2022-09-03T05:53:35;99463.81;;;20.19;36.73
11172;BME280;5642;50.830;12.082;2022-09-03T05:56:07;99456.31;;;20.99;36.23
11172;BME280;5642;50.830;12.082;2022-09-03T05:58:39;99460.53;;;21.73;35.92
11172;BME280;5642;50.830;12.082;2022-09-03T06:01:13;99452.50;;;22.41;35.51
11172;BME280;5642;50.830;12.082;2022-09-03T06:03:41;99452.91;;;23.02;35.23
11172;BME280;5642;50.830;12.082;2022-09-03T06:06:08;99462.66;;;23.67;35.04
11172;BME280;5642;50.830;12.082;2022-09-03T06:08:35;99449.53;;;24.26;34.73
11172;BME280;5642;50.830;12.082;2022-09-03T06:11:03;99421.38;;;24.72;34.59
11172;BME280;5642;50.830;12.082;2022-09-03T06:13:30;99430.06;;;25.33;34.23
11172;BME280;5642;50.830;12.082;2022-09-03T06:15:58;99440.63;;;25.92;34.28
11172;BME280;5642;50.830;12.082;2022-09-03T06:18:28;99448.06;;;26.55;33.70
11172;BME280;5642;50.830;12.082;2022-09-03T06:21:00;99405.59;;;26.85;33.57
11172;BME280;5642;50.830;12.082;2022-09-03T06:23:28;99443.47;;;27.55;33.26
11172;BME280;5642;50.830;12.082;2022-09-03T06:26:03;99443.69;;;28.05;32.87
11172;BME280;5642;50.830;12.082;2022-09-03T06:28:31;99439.22;;;28.48;33.09
11172;BME280;5642;50.830;12.082;2022-09-03T06:31:00;99443.97;;;28.96;32.92
11172;BME280;5642;50.830;12.082;2022-09-03T06:33:31;99439.53;;;29.37;32.69
11172;BME280;5642;50.830;12.082;2022-09-03T06:35:58;99440.50;;;29.84;32.28
11172;BME280;5642;50.830;12.082;2022-09-03T06:38:27;99411.50;;;30.11;32.10
11172;BME280;5642;50.830;12.082;2022-09-03T06:40:55;99438.31;;;30.76;31.72
11172;BME280;5642;50.830;12.082;2022-09-03T06:43:22;99423.72;;;31.16;31.56
11172;BME280;5642;50.830;12.082;2022-09-03T06:46:01;99427.31;;;31.76;31.30
11172;BME280;5642;50.830;12.082;2022-09-03T06:48:29;99429.84;;;32.30;31.17
11172;BME280;5642;50.830;12.082;2022-09-03T06:51:02;99415.03;;;32.77;31.10
11172;BME280;5642;50.830;12.082;2022-09-03T06:53:30;99425.50;;;33.30;30.41
11172;BME280;5642;50.830;12.082;2022-09-03T06:56:05;99418.38;;;33.51;30.12
11172;BME280;5642;50.830;12.082;2022-09-03T06:58:34;99430.66;;;33.89;30.07
11172;BME280;5642;50.830;12.082;2022-09-03T07:01:08;99432.41;;;34.25;29.44
11172;BME280;5642;50.830;12.082;2022-09-03T07:03:36;99407.25;;;34.57;29.68
11172;BME280;5642;50.830;12.082;2022-09-03T07:06:14;99419.78;;;35.06;29.12
11172;BME280;5642;50.830;12.082;2022-09-03T07:08:40;99416.34;;;35.38;29.31
11172;BME280;5642;50.830;12.082;2022-09-03T07:11:11;99420.97;;;35.57;28.78
11172;BME280;5642;50.830;12.082;2022-09-03T07:13:42;99419.69;;;35.60;28.42
11172;BME280;5642;50.830;12.082;2022-09-03T07:16:15;99415.72;;;35.69;28.43
11172;BME280;5642;50.830;12.082;2022-09-03T07:18:43;99419.53;;;35.88;28.30
11172;BME280;5642;50.830;12.082;2022-09-03T07:21:14;99423.25;;;36.13;28.13
11172;BME280;5642;50.830;12.082;2022-09-03T07:23:44;99400.97;;;36.42;28.17
11172;BME280;5642;50.830;12.082;2022-09-03T07:26:13;99398.06;;;36.88;27.58
11172;BME280;5642;50.830;12.082;2022-09-03T07:28:40;99406.75;;;37.48;27.54
11172;BME280;5642;50.830;12.082;2022-09-03T07:31:09;99376.94;;;37.72;27.16
11172;BME280;5642;50.830;12.082;2022-09-03T07:33:37;99407.41;;;38.18;26.98
11172;BME280;5642;50.830;12.082;2022-09-03T07:36:08;99391.97;;;38.49;27.00
11172;BME280;5642;50.830;12.082;2022-09-03T07:38:35;99373.38;;;38.69;26.85
11172;BME280;5642;50.830;12.082;2022-09-03T07:41:07;99369.06;;;38.91;26.57
11172;BME280;5642;50.830;12.082;2022-09-03T07:43:39;99387.94;;;38.99;25.89
11172;BME280;5642;50.830;12.082;2022-09-03T07:46:09;99352.09;;;38.53;25.87
11172;BME280;5642;50.830;12.082;2022-09-03T07:48:42;99343.75;;;38.29;25.45
11172;BME280;5642;50.830;12.082;2022-09-03T07:51:08;99388.53;;;38.53;25.57
11172;BME280;5642;50.830;12.082;2022-09-03T07:53:35;99393.06;;;38.77;25.29
11172;BME280;5642;50.830;12.082;2022-09-03T07:56:06;99363.13;;;38.94;25.34
11172;BME280;5642;50.830;12.082;2022-09-03T07:58:34;99384.56;;;39.57;25.17
11172;BME280;5642;50.830;12.082;2022-09-03T08:01:06;99394.72;;;39.91;24.81
11172;BME280;5642;50.830;12.082;2022-09-03T08:03:36;99400.09;;;40.33;24.91
11172;BME280;5642;50.830;12.082;2022-09-03T08:06:04;99401.56;;;40.76;24.38
11172;BME280;5642;50.830;12.082;2022-09-03T08:08:32;99393.78;;;41.13;24.00
11172;BME280;5642;50.830;12.082;2022-09-03T08:11:08;99394.78;;;41.68;24.06
11172;BME280;5642;50.830;12.082;2022-09-03T08:13:40;99378.47;;;42.17;23.53
11172;BME280;5642;50.830;12.082;2022-09-03T08:16:08;99392.53;;;42.81;23.56
11172;BME280;5642;50.830;12.082;2022-09-03T08:18:35;99392.56;;;43.34;23.22
11172;BME280;5642;50.830;12.082;2022-09-03T08:21:05;99395.81;;;43.90;22.77
11172;BME280;5642;50.830;12.082;2022-09-03T08:23:35;99387.03;;;44.40;22.33
11172;BME280;5642;50.830;12.082;2022-09-03T08:26:02;99389.97;;;44.81;22.36
11172;BME280;5642;50.830;12.082;2022-09-03T08:28:28;99381.22;;;45.24;22.18
11172;BME280;5642;50.830;12.082;2022-09-03T08:30:56;99371.84;;;45.66;21.72
11172;BME280;5642;50.830;12.082;2022-09-03T08:33:22;99374.59;;;46.02;21.13
11172;BME280;5642;50.830;12.082;2022-09-03T08:36:10;99368.16;;;46.31;21.02
11172;BME280;5642;50.830;12.082;2022-09-03T08:38:39;99365.06;;;46.38;21.01
11172;BME280;5642;50.830;12.082;2022-09-03T08:41:16;99356.38;;;46.55;20.29
11172;BME280;5642;50.830;12.082;2022-09-03T08:47:44;99332.72;;;47.22;20.47
11172;BME280;5642;50.830;12.082;2022-09-03T08:54:46;99349.72;;;48.31;19.27
11172;BME280;5642;50.830;12.082;2022-09-03T08:57:15;99350.00;;;48.53;19.07
11172;BME280;5642;50.830;12.082;2022-09-03T08:59:43;99345.69;;;48.84;18.75
11172;BME280;5642;50.830;12.082;2022-09-03T09:02:15;99357.53;;;49.27;18.70
11172;BME280;5642;50.830;12.082;2022-09-03T09:05:21;99361.13;;;49.47;17.84
11172;BME280;5642;50.830;12.082;2022-09-03T09:07:52;99348.50;;;49.68;17.76
11172;BME280;5642;50.830;12.082;2022-09-03T09:10:42;99338.66;;;49.89;17.25
11172;BME280;5642;50.830;12.082;2022-09-03T09:16:13;99334.88;;;50.26;17.03
11172;BME280;5642;50.830;12.082;2022-09-03T09:21:36;99335.50;;;50.37;16.35
11172;BME280;5642;50.830;12.082;2022-09-03T09:24:21;99331.34;;;50.48;16.68
11172;BME280;5642;50.830;12.082;2022-09-03T09:26:49;99332.03;;;50.67;16.32
11172;BME280;5642;50.830;12.082;2022-09-03T09:29:17;99324.84;;;50.88;15.98
11172;BME280;5642;50.830;12.082;2022-09-03T09:31:44;99295.16;;;51.06;15.81
11172;BME280;5642;50.830;12.082;2022-09-03T09:34:36;99314.34;;;51.52;15.98
11172;BME280;5642;50.830;12.082;2022-09-03T09:37:05;99305.78;;;51.49;15.58
11172;BME280;5642;50.830;12.082;2022-09-03T09:39:33;99307.81;;;51.57;15.01
11172;BME280;5642;50.830;12.082;2022-09-03T09:42:10;99304.00;;;51.53;15.02
11172;BME280;5642;50.830;12.082;2022-09-03T09:44:41;99300.47;;;51.16;15.04
11172;BME280;5642;50.830;12.082;2022-09-03T09:47:11;99312.03;;;51.01;14.58
11172;BME280;5642;50.830;12.082;2022-09-03T09:52:13;99301.19;;;50.64;14.85
11172;BME280;5642;50.830;12.082;2022-09-03T09:54:41;99278.00;;;50.27;14.70
11172;BME280;5642;50.830;12.082;2022-09-03T09:57:17;99311.13;;;50.01;14.62
11172;BME280;5642;50.830;12.082;2022-09-03T09:59:44;99311.56;;;49.95;14.48
11172;BME280;5642;50.830;12.082;2022-09-03T10:02:13;99295.75;;;50.04;13.97
11172;BME280;5642;50.830;12.082;2022-09-03T10:04:41;99287.78;;;50.11;13.72
11172;BME280;5642;50.830;12.082;2022-09-03T10:07:29;99302.97;;;50.32;13.63
11172;BME280;5642;50.830;12.082;2022-09-03T10:10:26;99300.69;;;50.34;14.12
11172;BME280;5642;50.830;12.082;2022-09-03T10:13:04;99267.78;;;49.82;13.65
11172;BME280;5642;50.830;12.082;2022-09-03T10:18:31;99304.81;;;48.85;13.97
11172;BME280;5642;50.830;12.082;2022-09-03T10:26:49;99293.31;;;48.30;13.72
11172;BME280;5642;50.830;12.082;2022-09-03T10:29:20;99299.38;;;48.32;13.10
11172;BME280;5642;50.830;12.082;2022-09-03T10:34:44;99289.50;;;47.78;13.13
11172;BME280;5642;50.830;12.082;2022-09-03T10:37:18;99290.72;;;47.91;13.23
11172;BME280;5642;50.830;12.082;2022-09-03T10:51:26;99282.84;;;48.83;12.93
11172;BME280;5642;50.830;12.082;2022-09-03T10:54:18;99278.75;;;48.81;12.77
11172;BME280;5642;50.830;12.082;2022-09-03T11:00:06;99277.06;;;48.42;12.44
11172;BME280;5642;50.830;12.082;2022-09-03T11:03:08;99277.69;;;48.15;12.60
11172;BME280;5642;50.830;12.082;2022-09-03T11:08:29;99264.25;;;47.99;12.22
11172;BME280;5642;50.830;12.082;2022-09-03T11:11:15;99243.66;;;47.81;12.21
11172;BME280;5642;50.830;12.082;2022-09-03T11:14:12;99255.13;;;47.74;12.32
11172;BME280;5642;50.830;12.082;2022-09-03T11:16:41;99255.06;;;47.22;12.57
11172;BME280;5642;50.830;12.082;2022-09-03T11:19:15;99237.25;;;46.60;12.25
11172;BME280;5642;50.830;12.082;2022-09-03T11:21:43;99228.09;;;46.05;12.16
11172;BME280;5642;50.830;12.082;2022-09-03T11:24:19;99238.25;;;45.05;12.05
11172;BME280;5642;50.830;12.082;2022-09-03T11:26:52;99249.09;;;44.08;12.43
11172;BME280;5642;50.830;12.082;2022-09-03T11:29:32;99234.56;;;42.70;12.80
11172;BME280;5642;50.830;12.082;2022-09-03T11:32:08;99224.03;;;41.36;13.24
11172;BME280;5642;50.830;12.082;2022-09-03T11:34:49;99246.28;;;40.16;13.15
11172;BME280;5642;50.830;12.082;2022-09-03T11:39:44;99234.97;;;37.58;13.71
11172;BME280;5642;50.830;12.082;2022-09-03T11:42:38;99241.13;;;36.35;13.75
11172;BME280;5642;50.830;12.082;2022-09-03T11:47:44;99246.94;;;34.49;14.25
11172;BME280;5642;50.830;12.082;2022-09-03T11:52:48;99242.09;;;32.79;14.45
11172;BME280;5642;50.830;12.082;2022-09-03T11:55:32;99242.75;;;32.09;14.84
11172;BME280;5642;50.830;12.082;2022-09-03T12:00:52;99244.25;;;30.78;15.06
11172;BME280;5642;50.830;12.082;2022-09-03T12:03:47;99232.66;;;30.15;15.19
11172;BME280;5642;50.830;12.082;2022-09-03T12:06:31;99241.78;;;29.75;15.56
11172;BME280;5642;50.830;12.082;2022-09-03T12:09:22;99241.38;;;29.23;15.50
11172;BME280;5642;50.830;12.082;2022-09-03T12:12:14;99238.84;;;28.73;15.53
11172;BME280;5642;50.830;12.082;2022-09-03T12:20:41;99236.53;;;27.70;15.78
11172;BME280;5642;50.830;12.082;2022-09-03T12:23:29;99245.03;;;27.57;15.89
11172;BME280;5642;50.830;12.082;2022-09-03T12:26:06;99223.88;;;27.36;15.92
11172;BME280;5642;50.830;12.082;2022-09-03T12:28:37;99244.03;;;27.32;16.18
11172;BME280;5642;50.830;12.082;2022-09-03T12:31:18;99248.66;;;27.22;16.13
11172;BME280;5642;50.830;12.082;2022-09-03T12:34:01;99198.97;;;26.82;16.49
11172;BME280;5642;50.830;12.082;2022-09-03T12:36:42;99220.41;;;26.92;16.44
11172;BME280;5642;50.830;12.082;2022-09-03T12:39:10;99231.16;;;26.92;16.31
11172;BME280;5642;50.830;12.082;2022-09-03T12:41:37;99207.66;;;26.76;16.22
11172;BME280;5642;50.830;12.082;2022-09-03T12:44:03;99212.41;;;26.82;16.57
11172;BME280;5642;50.830;12.082;2022-09-03T12:46:32;99229.53;;;26.81;16.60
11172;BME280;5642;50.830;12.082;2022-09-03T12:49:04;99222.44;;;26.80;16.49
11172;BME280;5642;50.830;12.082;2022-09-03T12:51:40;99209.56;;;26.66;16.52
11172;BME280;5642;50.830;12.082;2022-09-03T12:54:10;99209.41;;;26.68;16.72
11172;BME280;5642;50.830;12.082;2022-09-03T12:57:00;99190.47;;;26.51;16.76
11172;BME280;5642;50.830;12.082;2022-09-03T12:59:30;99197.84;;;26.49;16.85
11172;BME280;5642;50.830;12.082;2022-09-03T13:02:04;99204.38;;;26.47;17.05
11172;BME280;5642;50.830;12.082;2022-09-03T13:04:33;99199.16;;;26.45;16.88
11172;BME280;5642;50.830;12.082;2022-09-03T13:07:13;99203.16;;;26.41;17.11
11172;BME280;5642;50.830;12.082;2022-09-03T13:09:41;99194.69;;;26.36;16.93
11172;BME280;5642;50.830;12.082;2022-09-03T13:12:20;99207.69;;;26.41;17.07
11172;BME280;5642;50.830;12.082;2022-09-03T13:14:47;99196.25;;;26.39;17.10
11172;BME280;5642;50.830;12.082;2022-09-03T13:31:28;99184.97;;;26.35;17.43
11172;BME280;5642;50.830;12.082;2022-09-03T13:34:59;99188.72;;;26.42;17.05
11172;BME280;5642;50.830;12.082;2022-09-03T13:39:51;99178.97;;;26.41;17.23
11172;BME280;5642;50.830;12.082;2022-09-03T13:42:40;99194.00;;;26.52;17.39
11172;BME280;5642;50.830;12.082;2022-09-03T13:45:40;99193.72;;;26.55;17.36
11172;BME280;5642;50.830;12.082;2022-09-03T13:51:31;99182.41;;;26.51;17.65
11172;BME280;5642;50.830;12.082;2022-09-03T13:54:17;99171.84;;;26.50;17.51
11172;BME280;5642;50.830;12.082;2022-09-03T13:57:22;99175.06;;;26.54;17.82
11172;BME280;5642;50.830;12.082;2022-09-03T13:59:48;99171.38;;;26.55;17.62
11172;BME280;5642;50.830;12.082;2022-09-03T14:05:06;99164.28;;;26.71;17.60
11172;BME280;5642;50.830;12.082;2022-09-03T14:07:46;99165.34;;;26.78;17.67
11172;BME280;5642;50.830;12.082;2022-09-03T14:10:29;99171.41;;;26.98;17.83
11172;BME280;5642;50.830;12.082;2022-09-03T14:13:23;99169.13;;;27.11;17.81
11172;BME280;5642;50.830;12.082;2022-09-03T14:16:06;99162.59;;;27.14;17.79
11172;BME280;5642;50.830;12.082;2022-09-03T14:18:50;99162.34;;;27.33;17.71
11172;BME280;5642;50.830;12.082;2022-09-03T14:21:26;99163.91;;;27.44;17.59
11172;BME280;5642;50.830;12.082;2022-09-03T14:24:03;99171.03;;;27.53;17.73
11172;BME280;5642;50.830;12.082;2022-09-03T14:26:36;99158.56;;;27.52;17.70
11172;BME280;5642;50.830;12.082;2022-09-03T14:53:49;99169.97;;;27.12;18.02
11172;BME280;5642;50.830;12.082;2022-09-03T14:56:28;99162.84;;;27.03;18.18
11172;BME280;5642;50.830;12.082;2022-09-03T14:59:10;99161.94;;;26.94;17.96
11172;BME280;5642;50.830;12.082;2022-09-03T15:01:41;99102.31;;;26.47;18.07
11172;BME280;5642;50.830;12.082;2022-09-03T15:14:53;99139.91;;;26.29;18.30
11172;BME280;5642;50.830;12.082;2022-09-03T15:17:33;99172.16;;;26.47;18.22
11172;BME280;5642;50.830;12.082;2022-09-03T15:28:04;99164.84;;;26.39;18.32
11172;BME280;5642;50.830;12.082;2022-09-03T15:30:35;99164.16;;;26.37;18.62
11172;BME280;5642;50.830;12.082;2022-09-03T15:36:17;99159.31;;;26.23;18.53
11172;BME280;5642;50.830;12.082;2022-09-03T15:41:47;99128.25;;;26.03;18.83
11172;BME280;5642;50.830;12.082;2022-09-03T15:44:17;99153.03;;;26.15;18.65
11172;BME280;5642;50.830;12.082;2022-09-03T15:46:58;99159.31;;;26.23;18.88
11172;BME280;5642;50.830;12.082;2022-09-03T15:52:47;99158.44;;;26.23;19.01
11172;BME280;5642;50.830;12.082;2022-09-03T15:55:36;99159.31;;;26.23;18.81
11172;BME280;5642;50.830;12.082;2022-09-03T16:01:04;99156.38;;;26.17;18.96
11172;BME280;5642;50.830;12.082;2022-09-03T16:11:59;99141.28;;;25.98;18.96
11172;BME280;5642;50.830;12.082;2022-09-03T16:17:17;99165.06;;;26.10;19.45
11172;BME280;5642;50.830;12.082;2022-09-03T16:20:02;99142.97;;;25.99;19.37
11172;BME280;5642;50.830;12.082;2022-09-03T16:25:35;99165.66;;;26.04;19.54
11172;BME280;5642;50.830;12.082;2022-09-03T16:28:14;99164.13;;;26.02;19.69
11172;BME280;5642;50.830;12.082;2022-09-03T16:36:56;99150.09;;;25.90;19.59
11172;BME280;5642;50.830;12.082;2022-09-03T16:45:12;99174.09;;;25.92;19.84
11172;BME280;5642;50.830;12.082;2022-09-03T16:59:30;99170.41;;;25.65;20.05
11172;BME280;5642;50.830;12.082;2022-09-03T17:04:41;99180.31;;;25.65;20.50
11172;BME280;5642;50.830;12.082;2022-09-03T17:09:46;99182.19;;;25.55;20.42
11172;BME280;5642;50.830;12.082;2022-09-03T17:15:40;99179.66;;;25.44;20.18
11172;BME280;5642;50.830;12.082;2022-09-03T17:26:11;99161.88;;;25.15;20.68
11172;BME280;5642;50.830;12.082;2022-09-03T17:34:46;99186.16;;;25.14;20.71
11172;BME280;5642;50.830;12.082;2022-09-03T17:51:48;99129.00;;;24.57;20.82
11172;BME280;5642;50.830;12.082;2022-09-03T17:57:14;99197.22;;;24.91;21.01
11172;BME280;5642;50.830;12.082;2022-09-03T18:00:10;99200.25;;;24.87;21.43